createdAt,value
2018-09-05T00:02:11.609Z,6.10
2018-09-05T00:04:40.655Z,6.37
2018-09-05T00:07:09.047Z,6.07
2018-09-05T00:09:37.373Z,6.20
2018-09-05T00:12:06.209Z,6.20
2018-09-05T00:14:34.524Z,5.80
2018-09-05T00:17:03.283Z,6.03
2018-09-05T00:19:31.856Z,5.90
2018-09-05T00:22:00.180Z,6.00
2018-09-05T00:24:28.533Z,5.60
2018-09-05T00:26:57.183Z,5.10
2018-09-05T00:29:25.745Z,6.40
2018-09-05T00:31:54.164Z,5.77
2018-09-05T00:34:22.590Z,5.97
2018-09-05T00:36:50.915Z,5.53
2018-09-05T00:39:19.293Z,5.13
2018-09-05T00:41:47.863Z,4.60
2018-09-05T00:44:16.521Z,5.33
2018-09-05T00:46:44.939Z,5.30
2018-09-05T00:49:13.347Z,4.80
2018-09-05T00:51:41.685Z,5.03
2018-09-05T00:54:10.002Z,4.00
2018-09-05T00:56:38.560Z,4.50
2018-09-05T00:59:06.879Z,4.70
2018-09-05T01:01:35.219Z,4.30
2018-09-05T01:04:03.655Z,5.00
2018-09-05T01:06:32.071Z,5.10
2018-09-05T01:09:00.395Z,4.80
2018-09-05T01:11:29.023Z,5.00
2018-09-05T01:13:57.343Z,4.43
2018-09-05T01:16:25.691Z,5.03
2018-09-05T01:18:54.119Z,4.70
2018-09-05T01:21:22.556Z,4.00
2018-09-05T01:23:50.924Z,4.30
2018-09-05T01:26:19.374Z,4.70
2018-09-05T01:28:47.723Z,4.50
2018-09-05T01:31:16.059Z,4.47
2018-09-05T01:33:50.810Z,5.40
2018-09-05T01:36:19.547Z,5.33
2018-09-05T01:38:47.941Z,6.37
2018-09-05T01:41:16.690Z,5.10
2018-09-05T01:43:45.133Z,5.60
2018-09-05T01:46:13.651Z,6.07
2018-09-05T01:48:41.996Z,5.80
2018-09-05T01:51:11.238Z,5.30
2018-09-05T01:53:39.695Z,5.00
2018-09-05T01:56:08.070Z,5.40
2018-09-05T01:58:37.044Z,6.20
2018-09-05T02:01:05.440Z,6.13
2018-09-05T02:03:33.844Z,5.40
2018-09-05T02:06:02.355Z,6.00
2018-09-05T02:08:31.332Z,5.47
2018-09-05T02:10:59.790Z,5.70
2018-09-05T02:13:28.155Z,5.80
2018-09-05T02:15:56.610Z,5.30
2018-09-05T02:18:25.050Z,5.17
2018-09-05T02:20:53.460Z,5.30
2018-09-05T02:23:21.839Z,5.23
2018-09-05T02:25:50.195Z,5.53
2018-09-05T02:28:18.527Z,4.97
2018-09-05T02:30:46.859Z,5.40
2018-09-05T02:33:15.218Z,5.10
2018-09-05T02:35:43.551Z,4.97
2018-09-05T02:38:11.883Z,4.60
2018-09-05T02:40:40.258Z,4.67
2018-09-05T02:43:08.616Z,4.60
2018-09-05T02:45:36.984Z,5.47
2018-09-05T02:48:06.144Z,5.10
2018-09-05T02:50:34.463Z,5.13
2018-09-05T02:53:02.889Z,6.20
2018-09-05T02:55:36.471Z,5.80
2018-09-05T02:58:05.178Z,5.73
2018-09-05T03:00:33.655Z,5.90
2018-09-05T03:03:02.079Z,6.97
2018-09-05T03:05:30.438Z,9.10
2018-09-05T03:07:58.811Z,6.90
2018-09-05T03:10:27.183Z,7.70
2018-09-05T03:12:55.523Z,7.13
2018-09-05T03:15:23.966Z,5.73
2018-09-05T03:17:52.319Z,5.83
2018-09-05T03:20:20.711Z,6.13
2018-09-05T03:22:49.055Z,5.90
2018-09-05T03:25:17.403Z,6.73
2018-09-05T03:27:45.991Z,6.93
2018-09-05T03:30:14.315Z,7.20
2018-09-05T03:32:42.835Z,7.93
2018-09-05T03:35:11.108Z,7.77
2018-09-05T03:37:39.556Z,7.67
2018-09-05T03:40:07.935Z,8.47
2018-09-05T03:42:36.467Z,8.90
2018-09-05T03:45:05.131Z,8.70
2018-09-05T03:47:33.492Z,7.83
2018-09-05T03:50:01.844Z,8.00
2018-09-05T03:52:30.225Z,8.30
2018-09-05T03:54:58.767Z,9.10
2018-09-05T03:57:27.268Z,8.87
2018-09-05T03:59:55.751Z,9.07
2018-09-05T04:02:24.259Z,8.80
2018-09-05T04:04:52.583Z,8.80
2018-09-05T04:07:21.004Z,9.30
2018-09-05T04:09:49.386Z,8.70
2018-09-05T04:12:17.889Z,8.90
2018-09-05T04:14:46.140Z,9.00
2018-09-05T04:17:14.613Z,9.47
2018-09-05T04:19:42.958Z,8.63
2018-09-05T04:22:11.370Z,8.47
2018-09-05T04:24:39.673Z,8.87
2018-09-05T04:27:08.064Z,8.00
2018-09-05T04:29:36.555Z,8.20
2018-09-05T04:32:05.085Z,7.90
2018-09-05T04:34:33.484Z,8.00
2018-09-05T04:37:01.807Z,7.33
2018-09-05T04:39:33.279Z,7.07
2018-09-05T04:42:08.156Z,7.20
2018-09-05T04:44:36.522Z,7.77
2018-09-05T04:47:05.123Z,7.50
2018-09-05T04:49:33.708Z,8.10
2018-09-05T04:52:02.080Z,8.10
2018-09-05T04:54:30.533Z,8.67
2018-09-05T04:56:58.915Z,8.40
2018-09-05T04:59:27.336Z,8.73
2018-09-05T05:01:55.651Z,8.70
2018-09-05T05:04:23.971Z,9.47
2018-09-05T05:06:52.371Z,10.43
2018-09-05T05:09:20.719Z,10.60
2018-09-05T05:11:49.117Z,10.33
2018-09-05T05:14:17.608Z,10.90
2018-09-05T05:16:45.969Z,10.87
2018-09-05T05:19:15.450Z,10.60
2018-09-05T05:21:43.836Z,10.80
2018-09-05T05:24:12.292Z,10.43
2018-09-05T05:26:40.699Z,10.27
2018-09-05T05:29:09.891Z,9.80
2018-09-05T05:31:39.060Z,10.53
2018-09-05T05:34:07.416Z,9.87
2018-09-05T05:36:35.940Z,10.40
2018-09-05T05:39:06.814Z,9.60
2018-09-05T05:41:41.566Z,9.53
2018-09-05T05:44:09.911Z,9.23
2018-09-05T05:46:38.353Z,9.40
2018-09-05T05:49:06.676Z,9.00
2018-09-05T05:51:35.026Z,8.80
2018-09-05T05:54:03.404Z,8.47
2018-09-05T05:56:31.776Z,8.83
2018-09-05T05:59:00.150Z,8.20
2018-09-05T06:01:28.700Z,8.40
2018-09-05T06:03:57.210Z,7.47
2018-09-05T06:06:25.619Z,7.83
2018-09-05T06:08:53.924Z,7.53
2018-09-05T06:11:23.260Z,7.20
2018-09-05T06:13:51.772Z,7.77
2018-09-05T06:16:20.244Z,7.60
2018-09-05T06:18:48.673Z,7.10
2018-09-05T06:21:17.150Z,7.37
2018-09-05T06:23:45.574Z,7.30
2018-09-05T06:26:14.039Z,7.03
2018-09-05T06:28:42.467Z,7.23
2018-09-05T06:31:10.920Z,7.50
2018-09-05T06:33:39.516Z,8.03
2018-09-05T06:36:07.856Z,7.40
2018-09-05T06:38:36.196Z,8.57
2018-09-05T06:41:04.684Z,8.20
2018-09-05T06:43:33.108Z,8.20
2018-09-05T06:46:01.504Z,7.70
2018-09-05T06:48:30.172Z,8.07
2018-09-05T06:51:04.077Z,7.70
2018-09-05T06:53:32.512Z,7.63
2018-09-05T06:56:00.964Z,7.90
2018-09-05T06:58:29.372Z,7.37
2018-09-05T07:00:57.983Z,8.13
2018-09-05T07:03:26.485Z,8.50
2018-09-05T07:05:54.836Z,7.80
2018-09-05T07:08:23.349Z,7.57
2018-09-05T07:10:51.800Z,7.77
2018-09-05T07:13:20.539Z,7.20
2018-09-05T07:15:49.259Z,7.30
2018-09-05T07:18:17.673Z,7.30
2018-09-05T07:20:46.075Z,7.00
2018-09-05T07:23:14.447Z,6.63
2018-09-05T07:25:42.877Z,7.27
2018-09-05T07:28:11.310Z,6.60
2018-09-05T07:30:39.794Z,6.73
2018-09-05T07:33:08.167Z,7.10
2018-09-05T07:35:36.591Z,6.33
2018-09-05T07:38:05.007Z,6.43
2018-09-05T07:40:33.435Z,6.80
2018-09-05T07:43:01.785Z,6.60
2018-09-05T07:45:30.273Z,6.63
2018-09-05T07:47:58.734Z,6.60
2018-09-05T07:50:27.075Z,6.53
2018-09-05T07:52:55.635Z,6.63
2018-09-05T07:55:23.984Z,11.43
2018-09-05T07:57:52.355Z,5.90
2018-09-05T08:00:20.721Z,6.70
2018-09-05T08:02:49.113Z,6.33
2018-09-05T08:05:17.399Z,5.63
2018-09-05T08:07:46.672Z,6.90
2018-09-05T08:10:15.330Z,7.40
2018-09-05T08:12:43.752Z,6.43
2018-09-05T08:15:12.185Z,6.30
2018-09-05T08:17:40.551Z,6.60
2018-09-05T08:20:09.023Z,7.33
2018-09-05T08:22:37.387Z,7.30
2018-09-05T08:25:06.265Z,7.07
2018-09-05T08:27:34.584Z,6.70
2018-09-05T08:30:03.080Z,7.37
2018-09-05T08:32:31.423Z,5.83
2018-09-05T08:34:59.875Z,6.57
2018-09-05T08:37:28.658Z,6.93
2018-09-05T08:39:56.697Z,6.63
2018-09-05T08:42:25.206Z,7.50
2018-09-05T08:44:53.964Z,6.10
2018-09-05T08:47:22.157Z,7.23
2018-09-05T08:49:50.575Z,6.67
2018-09-05T08:52:19.015Z,6.43
2018-09-05T08:54:47.713Z,6.57
2018-09-05T08:57:16.063Z,6.00
2018-09-05T08:59:44.583Z,5.90
2018-09-05T09:02:12.912Z,6.63
2018-09-05T09:04:41.404Z,5.83
2018-09-05T09:07:09.835Z,6.33
2018-09-05T09:09:38.392Z,6.53
2018-09-05T09:12:06.744Z,6.17
2018-09-05T09:14:35.106Z,6.23
2018-09-05T09:17:03.450Z,6.53
2018-09-05T09:19:31.804Z,5.60
2018-09-05T09:22:00.394Z,6.40
2018-09-05T09:24:28.780Z,5.33
2018-09-05T09:26:57.212Z,5.80
2018-09-05T09:29:25.580Z,6.07
2018-09-05T09:31:53.998Z,5.70
2018-09-05T09:34:22.377Z,5.40
2018-09-05T09:36:50.857Z,6.20
2018-09-05T09:39:19.195Z,5.63
2018-09-05T09:41:47.568Z,5.67
2018-09-05T09:44:16.075Z,5.97
2018-09-05T09:46:44.514Z,5.20
2018-09-05T09:49:12.888Z,6.47
2018-09-05T09:51:41.555Z,5.57
2018-09-05T09:54:10.054Z,5.50
2018-09-05T09:56:38.451Z,5.10
2018-09-05T09:59:06.884Z,5.97
2018-09-05T10:01:40.480Z,5.30
2018-09-05T10:04:14.216Z,5.77
2018-09-05T10:06:46.763Z,5.30
2018-09-05T10:09:20.360Z,5.40
2018-09-05T10:11:54.061Z,5.20
2018-09-05T10:14:27.872Z,5.47
2018-09-05T10:17:01.682Z,5.73
2018-09-05T10:19:30.234Z,5.70
2018-09-05T10:21:58.653Z,4.80
2018-09-05T10:24:27.041Z,5.87
2018-09-05T10:27:01.948Z,6.07
2018-09-05T10:29:30.330Z,5.30
2018-09-05T10:31:58.705Z,5.20
2018-09-05T10:34:27.144Z,5.20
2018-09-05T10:36:55.485Z,5.63
2018-09-05T10:39:23.808Z,5.90
2018-09-05T10:41:52.280Z,5.13
2018-09-05T10:44:20.799Z,5.23
2018-09-05T10:46:49.068Z,5.20
2018-09-05T10:49:17.525Z,4.93
2018-09-05T10:51:51.235Z,5.00
2018-09-05T10:54:19.615Z,6.73
2018-09-05T10:56:48.100Z,7.60
2018-09-05T10:59:16.427Z,9.07
2018-09-05T11:01:44.989Z,6.30
2018-09-05T11:04:13.403Z,5.80
2018-09-05T11:06:41.748Z,5.93
2018-09-05T11:09:11.467Z,5.00
2018-09-05T11:12:09.140Z,6.20
2018-09-05T11:14:37.700Z,5.97
2018-09-05T11:17:06.012Z,8.00
2018-09-05T11:19:34.353Z,11.23
2018-09-05T11:22:02.723Z,6.50
2018-09-05T11:24:31.092Z,6.73
2018-09-05T11:26:59.519Z,6.50
2018-09-05T11:29:28.171Z,7.07
2018-09-05T11:31:56.522Z,8.67
2018-09-05T11:34:25.539Z,7.43
2018-09-05T11:36:54.273Z,8.60
2018-09-05T11:39:22.687Z,21.33
2018-09-05T11:41:51.099Z,7.73
2018-09-05T11:44:19.474Z,9.40
2018-09-05T11:46:47.875Z,8.40
2018-09-05T11:49:16.234Z,7.70
2018-09-05T11:51:44.711Z,7.80
2018-09-05T11:54:13.081Z,9.50
2018-09-05T11:56:41.475Z,8.93
2018-09-05T11:59:10.191Z,12.33
2018-09-05T12:01:38.678Z,7.40
2018-09-05T12:04:07.104Z,6.80
2018-09-05T12:06:35.539Z,7.83
2018-09-05T12:09:05.419Z,7.80
2018-09-05T12:11:33.795Z,8.23
2018-09-05T12:14:02.208Z,6.90
2018-09-05T12:16:30.690Z,7.47
2018-09-05T12:18:59.122Z,8.97
2018-09-05T12:21:27.543Z,10.43
2018-09-05T12:23:55.883Z,7.97
2018-09-05T12:26:24.229Z,6.67
2018-09-05T12:28:52.676Z,7.43
2018-09-05T12:31:21.128Z,7.27
2018-09-05T12:33:49.492Z,11.63
2018-09-05T12:36:17.955Z,7.37
2018-09-05T12:38:46.428Z,7.43
2018-09-05T12:41:14.771Z,7.73
2018-09-05T12:43:43.147Z,7.47
2018-09-05T12:46:11.609Z,8.00
2018-09-05T12:48:39.969Z,15.43
2018-09-05T12:51:08.429Z,8.17
2018-09-05T12:53:36.823Z,9.63
2018-09-05T12:56:05.233Z,8.10
2018-09-05T12:58:33.703Z,10.03
2018-09-05T13:01:02.444Z,10.13
2018-09-05T13:03:30.944Z,8.73
2018-09-05T13:05:59.416Z,9.00
2018-09-05T13:08:27.820Z,9.27
2018-09-05T13:10:56.313Z,9.17
2018-09-05T13:13:24.876Z,8.57
2018-09-05T13:15:53.262Z,9.33
2018-09-05T13:18:21.634Z,8.20
2018-09-05T13:20:50.210Z,9.07
2018-09-05T13:23:18.600Z,9.40
2018-09-05T13:25:46.948Z,9.17
2018-09-05T13:28:15.390Z,8.73
2018-09-05T13:30:43.843Z,9.00
2018-09-05T13:33:12.280Z,14.10
2018-09-05T13:35:40.675Z,10.77
2018-09-05T13:38:09.583Z,10.30
2018-09-05T13:40:38.238Z,9.57
2018-09-05T13:43:06.683Z,9.13
2018-09-05T13:45:35.147Z,9.97
2018-09-05T13:48:03.633Z,12.90
2018-09-05T13:50:32.293Z,8.97
2018-09-05T13:53:00.691Z,9.33
2018-09-05T13:55:29.073Z,9.93
2018-09-05T13:57:57.559Z,10.10
2018-09-05T14:00:25.929Z,9.80
2018-09-05T14:02:54.359Z,12.17
2018-09-05T14:05:22.716Z,11.73
2018-09-05T14:07:51.108Z,15.03
2018-09-05T14:10:19.459Z,10.60
2018-09-05T14:12:47.879Z,10.13
2018-09-05T14:15:16.240Z,10.17
2018-09-05T14:17:44.949Z,10.60
2018-09-05T14:20:13.371Z,11.37
2018-09-05T14:22:41.848Z,10.27
2018-09-05T14:25:10.323Z,12.07
2018-09-05T14:27:38.807Z,11.10
2018-09-05T14:30:07.341Z,10.93
2018-09-05T14:32:35.859Z,10.83
2018-09-05T14:35:04.505Z,14.03
2018-09-05T14:37:32.930Z,10.80
2018-09-05T14:40:01.357Z,10.60
2018-09-05T14:42:30.914Z,10.07
2018-09-05T14:44:59.255Z,10.20
2018-09-05T14:47:27.614Z,11.97
2018-09-05T14:49:56.161Z,11.47
2018-09-05T14:52:24.631Z,10.70
2018-09-05T14:54:53.039Z,12.77
2018-09-05T14:57:21.413Z,12.23
2018-09-05T14:59:49.799Z,11.37
2018-09-05T15:02:19.209Z,11.23
2018-09-05T15:04:47.987Z,11.50
2018-09-05T15:07:16.475Z,12.23
2018-09-05T15:09:44.920Z,12.03
2018-09-05T15:12:13.355Z,13.10
2018-09-05T15:14:41.687Z,20.10
2018-09-05T15:17:10.172Z,13.60
2018-09-05T15:19:38.567Z,14.30
2018-09-05T15:22:07.075Z,12.37
2018-09-05T15:24:35.461Z,11.77
2018-09-05T15:27:03.933Z,11.37
2018-09-05T15:29:32.370Z,11.47
2018-09-05T15:32:00.717Z,12.17
2018-09-05T15:34:29.321Z,12.17
2018-09-05T15:36:57.667Z,12.73
2018-09-05T15:39:26.151Z,13.60
2018-09-05T15:41:54.422Z,17.00
2018-09-05T15:44:22.844Z,13.97
2018-09-05T15:46:51.284Z,13.20
2018-09-05T15:49:19.682Z,11.57
2018-09-05T15:51:48.138Z,12.60
2018-09-05T15:54:16.584Z,11.37
2018-09-05T15:56:45.078Z,15.00
2018-09-05T15:59:13.535Z,17.90
2018-09-05T16:01:42.155Z,17.03
2018-09-05T16:04:10.853Z,13.70
2018-09-05T16:06:39.237Z,12.50
2018-09-05T16:09:09.123Z,12.40
2018-09-05T16:11:37.647Z,12.03
2018-09-05T16:14:06.390Z,12.87
2018-09-05T16:16:34.867Z,12.33
2018-09-05T16:19:03.423Z,13.20
2018-09-05T16:21:31.838Z,11.77
2018-09-05T16:24:00.285Z,13.27
2018-09-05T16:26:28.776Z,13.03
2018-09-05T16:28:57.444Z,12.97
2018-09-05T16:31:25.821Z,13.00
2018-09-05T16:33:54.220Z,13.03
2018-09-05T16:36:22.808Z,11.63
2018-09-05T16:38:51.559Z,13.13
2018-09-05T16:41:20.351Z,13.90
2018-09-05T16:43:48.731Z,13.47
2018-09-05T16:46:17.192Z,12.80
2018-09-05T16:48:45.880Z,13.17
2018-09-05T16:51:18.035Z,12.23
2018-09-05T16:53:48.206Z,11.93
2018-09-05T16:56:17.615Z,12.47
2018-09-05T16:58:47.070Z,12.83
2018-09-05T17:01:16.192Z,12.80
2018-09-05T17:03:46.815Z,13.10
2018-09-05T17:06:18.097Z,13.30
2018-09-05T17:08:47.113Z,14.27
2018-09-05T17:11:15.777Z,14.00
2018-09-05T17:13:44.545Z,14.93
2018-09-05T17:16:12.938Z,15.30
2018-09-05T17:18:41.271Z,15.43
2018-09-05T17:21:10.890Z,16.80
2018-09-05T17:23:40.875Z,22.10
2018-09-05T17:26:10.407Z,17.00
2018-09-05T17:28:40.119Z,19.60
2018-09-05T17:31:10.499Z,17.03
2018-09-05T17:33:39.763Z,16.73
2018-09-05T17:36:08.182Z,18.93
2018-09-05T17:38:36.827Z,15.70
2018-09-05T17:41:05.555Z,15.23
2018-09-05T17:43:33.961Z,16.80
2018-09-05T17:46:02.444Z,20.57
2018-09-05T17:48:30.830Z,18.23
2018-09-05T17:50:59.250Z,16.63
2018-09-05T17:53:27.774Z,15.67
2018-09-05T17:55:56.195Z,16.70
2018-09-05T17:58:24.612Z,16.20
2018-09-05T18:00:53.034Z,15.80
2018-09-05T18:03:21.788Z,15.50
2018-09-05T18:05:50.274Z,14.53
2018-09-05T18:08:18.717Z,15.67
2018-09-05T18:10:47.092Z,16.50
2018-09-05T18:13:15.579Z,15.47
2018-09-05T18:15:44.019Z,15.40
2018-09-05T18:18:13.837Z,15.53
2018-09-05T18:20:45.973Z,14.87
2018-09-05T18:23:14.650Z,15.53
2018-09-05T18:25:46.701Z,14.50
2018-09-05T18:28:18.681Z,14.83
2018-09-05T18:30:51.101Z,15.00
2018-09-05T18:33:28.045Z,15.23
2018-09-05T18:35:58.163Z,14.87
2018-09-05T18:38:26.776Z,14.40
2018-09-05T18:40:55.155Z,14.10
2018-09-05T18:43:30.565Z,15.30
2018-09-05T18:45:59.087Z,14.67
2018-09-05T18:48:27.469Z,13.17
2018-09-05T18:50:55.952Z,14.37
2018-09-05T18:53:24.303Z,14.47
2018-09-05T18:55:53.447Z,13.40
2018-09-05T18:58:21.935Z,14.43
2018-09-05T19:00:50.387Z,13.93
2018-09-05T19:03:18.785Z,15.20
2018-09-05T19:05:47.163Z,14.57
2018-09-05T19:08:15.651Z,14.40
2018-09-05T19:10:44.087Z,14.77
2018-09-05T19:13:12.471Z,14.23
2018-09-05T19:15:40.860Z,14.10
2018-09-05T19:18:10.025Z,14.63
2018-09-05T19:20:38.521Z,14.47
2018-09-05T19:23:07.013Z,14.30
2018-09-05T19:25:35.403Z,14.13
2018-09-05T19:28:04.563Z,14.90
2018-09-05T19:30:32.962Z,15.10
2018-09-05T19:33:01.328Z,14.43
2018-09-05T19:35:29.947Z,16.90
2018-09-05T19:37:58.294Z,14.13
2018-09-05T19:40:26.736Z,13.40
2018-09-05T19:42:55.098Z,13.77
2018-09-05T19:45:23.490Z,13.87
2018-09-05T19:47:51.877Z,14.70
2018-09-05T19:50:20.380Z,14.40
2018-09-05T19:52:48.671Z,14.40
2018-09-05T19:55:17.142Z,14.57
2018-09-05T19:57:45.560Z,14.60
2018-09-05T20:00:15.483Z,13.10
2018-09-05T20:02:44.171Z,13.70
2018-09-05T20:05:13.383Z,13.67
2018-09-05T20:07:41.801Z,13.87
2018-09-05T20:10:10.357Z,14.33
2018-09-05T20:12:38.776Z,14.47
2018-09-05T20:15:07.308Z,14.50
2018-09-05T20:17:35.681Z,14.53
2018-09-05T20:20:04.422Z,14.23
2018-09-05T20:22:33.008Z,14.53
2018-09-05T20:25:01.435Z,14.10
2018-09-05T20:27:30.064Z,15.03
2018-09-05T20:29:58.530Z,14.33
2018-09-05T20:32:27.055Z,12.80
2018-09-05T20:34:55.547Z,13.73
2018-09-05T20:37:23.891Z,14.53
2018-09-05T20:39:52.243Z,13.40
2018-09-05T20:42:20.676Z,15.87
2018-09-05T20:44:49.009Z,15.23
2018-09-05T20:47:17.404Z,14.00
2018-09-05T20:49:45.784Z,13.90
2018-09-05T20:52:14.246Z,14.97
2018-09-05T20:54:42.654Z,14.73
2018-09-05T20:57:11.108Z,15.07
2018-09-05T20:59:39.543Z,13.83
2018-09-05T21:02:08.005Z,13.70
2018-09-05T21:04:36.395Z,15.03
2018-09-05T21:07:04.856Z,14.27
2018-09-05T21:09:33.192Z,14.43
2018-09-05T21:12:01.728Z,12.87
2018-09-05T21:14:30.182Z,13.20
2018-09-05T21:16:58.566Z,14.13
2018-09-05T21:19:27.311Z,15.30
2018-09-05T21:21:55.972Z,14.80
2018-09-05T21:24:24.478Z,16.07
2018-09-05T21:26:53.556Z,14.70
2018-09-05T21:29:21.996Z,14.73
2018-09-05T21:31:50.534Z,15.00
2018-09-05T21:34:19.318Z,14.43
2018-09-05T21:36:48.212Z,14.83
2018-09-05T21:39:16.793Z,16.27
2018-09-05T21:41:46.241Z,17.00
2018-09-05T21:44:15.462Z,16.50
2018-09-05T21:46:43.896Z,15.23
2018-09-05T21:49:12.420Z,15.10
2018-09-05T21:51:40.835Z,16.53
2018-09-05T21:54:15.672Z,17.77
2018-09-05T21:56:44.072Z,18.60
2018-09-05T21:59:12.520Z,19.13
2018-09-05T22:01:41.135Z,16.80
2018-09-05T22:04:09.539Z,18.57
2018-09-05T22:06:38.000Z,18.23
2018-09-05T22:09:09.204Z,17.80
2018-09-05T22:11:37.586Z,17.47
2018-09-05T22:14:06.109Z,18.30
2018-09-05T22:16:34.688Z,19.03
2018-09-05T22:19:03.050Z,17.77
2018-09-05T22:21:31.452Z,17.10
2018-09-05T22:23:59.866Z,18.30
2018-09-05T22:26:28.360Z,15.20
2018-09-05T22:28:56.792Z,16.13
2018-09-05T22:31:25.362Z,15.53
2018-09-05T22:33:53.758Z,15.60
2018-09-05T22:36:22.103Z,16.10
2018-09-05T22:38:50.733Z,15.10
2018-09-05T22:41:19.116Z,16.47
2018-09-05T22:43:58.716Z,16.53
2018-09-05T22:46:38.312Z,16.93
2018-09-05T22:53:35.092Z,17.10
2018-09-05T22:56:41.520Z,18.33
2018-09-05T22:59:19.819Z,18.47
2018-09-05T23:01:57.072Z,18.63
2018-09-05T23:08:47.736Z,17.30
2018-09-05T23:11:27.438Z,17.17
2018-09-05T23:15:06.516Z,19.23
2018-09-05T23:17:46.312Z,19.87
2018-09-05T23:20:32.881Z,18.27
2018-09-05T23:23:12.652Z,18.63
2018-09-05T23:25:41.189Z,19.13
2018-09-05T23:28:09.580Z,20.20
2018-09-05T23:30:37.949Z,16.67
2018-09-05T23:33:06.422Z,16.67
2018-09-05T23:35:34.843Z,13.93
2018-09-05T23:38:03.292Z,13.13
2018-09-05T23:40:31.725Z,15.97
2018-09-05T23:43:00.052Z,14.73
2018-09-05T23:45:28.424Z,16.50
2018-09-05T23:47:56.819Z,17.27
2018-09-05T23:50:25.207Z,17.47
2018-09-05T23:52:53.602Z,17.00
2018-09-05T23:55:21.964Z,15.67
2018-09-05T23:57:50.286Z,15.53
